Terminal Aerodrome Forecast
Issued by NWS Atlanta, GA

Home | Current Version | Previous Version | Text Only | Print | Product List | Glossary On
Versions: 1 2 3 4 5 6 7 8 9 10 11 12 13 14 15 16 17 18 19 20 21 22 23 24 25 26 27 28 29 30 31 32 33 34 35 36
000
FTUS42 KFFC 290343 AAB
TAFATL
TAF AMD
KATL 290343Z 2904/3006 33005KT 6SM BR SCT006 OVC012
     FM290500 31003KT 2SM -RA BR OVC005
     FM290700 31003KT 2SM RA BR OVC003
     FM291300 34004KT 3SM BR OVC006
     FM291800 35003KT P6SM BKN014
     FM292100 33006KT P6SM BKN020
     FM300300 31006KT P6SM BKN012=

USA.gov is the U.S. government's official web portal to all federal, state and local government web resources and services.